首页
METAR-TAF:

METAR-TAF

机场 :

堪薩斯城, 密蘇里州, 美国

纬度: 39-17-50N, 经度: 094-43-50W, 海拔: 312米

当前天气观测

该预报发布于48分钟前的13:53 UTC
风速12节,风向,有时为17节阵风
温度 22°C
湿度 78%
气压 1021 hPa
能見度: 16.1公里
少量云层高于25000英尺

METAR: KMCI 221353Z 01012G17KT 10SM FEW250 22/18 A3015 RMK AO2 SLP199 T02220178

时间: 09:41 (14:41 UTC)

预报

该预报发布于3小时和21分钟前的11:20 UTC
预报有效从22日的 12点(UTC)到 23日的 12点(UTC)
风速10节,风向
能見度: 10公里
散云层高于10000英尺
从 22日的 1800点(UTC)
风速12节,风向,有时为22节阵风
能見度: 10公里
散云层高于5000英尺
从 23日的 0000点(UTC)
风速9节,风向北转东北
能見度: 10公里
天空无云

TAF: KMCI 221120Z 2212/2312 36010KT P6SM SCT100 FM221800 01012G22KT P6SM SCT050 FM230000 02009KT P6SM SKC

超过4000个机场的气象观测和天气预报(METAR&TAF报告)。

可查询的气象台以黄色和红色小点在地图上表示。

将鼠标移到小点上方,可查看气象台名称。

然后点击查看天气观测和预报。

如需切换地图:点击带黑十字的绿色按钮放大地图;点击带横线的绿色按钮缩小地图;或者点击绿色箭头查看邻近地区的地图。


METAR-TAF: